Terminal Aerodrome Forecast
Issued by NWS

Home | Current Version | Previous Version | Text Only | Print | Product List | Glossary On
Versions: 1 2 3 4 5 6 7 8 9 10 11 12 13 14 15
000
FTUS45 KGGW 050529
TAFOLF
TAF
KOLF 050529Z 0506/0606 22009KT 1/2SM -SN FZFG BKN010 OVC025
     FM051300 30016KT P6SM OVC015
     FM060300 30013KT P6SM BKN035=

USA.gov is the U.S. government's official web portal to all federal, state and local government web resources and services.